Time;durP1;ratioP1;P1;durP2;ratioP2;P2;SDS_P1;SDS_P2;PMS_P1;PMS_P2;Temp;Humidity;BMP_temperature;BMP_pressure;BME280_temperature;BME280_humidity;BME280_pressure;Samples;Min_cycle;Max_cycle;Signal;HPM_P1;HPM_P2
2022/11/26 00:00:00;;;;;;;4.38;1.92;;;;;;;17.74;61.00;97598.34;10438074;28;20511;-30
2022/11/26 00:05:00;;;;;;;8.83;3.30;;;;;;;17.78;61.48;97597.53;10440964;28;20037;-31
2022/11/26 00:10:01;;;;;;;6.40;3.00;;;;;;;17.78;61.65;97595.00;10444430;28;20350;-30
2022/11/26 00:15:25;;;;;;;8.18;2.90;;;;;;;17.77;61.02;97608.50;10443737;28;20048;-30
2022/11/26 00:20:30;;;;;;;3.95;1.92;;;;;;;17.76;60.97;97607.63;10436979;28;20037;-30
2022/11/26 00:25:40;;;;;;;7.03;2.17;;;;;;;17.75;60.56;97620.31;10439910;28;20033;-30
2022/11/26 00:30:40;;;;;;;3.63;2.10;;;;;;;17.74;61.02;97618.59;10440832;28;20128;-30
2022/11/26 00:35:41;;;;;;;3.60;2.43;;;;;;;17.72;60.81;97636.28;10442352;28;20108;-30
2022/11/26 00:40:41;;;;;;;5.43;2.40;;;;;;;17.72;60.75;97632.88;10439171;28;20789;-29
2022/11/26 00:45:43;;;;;;;6.87;2.23;;;;;;;17.72;60.91;97635.41;10435654;28;20100;-30
2022/11/26 00:50:48;;;;;;;3.35;1.70;;;;;;;17.71;61.05;97639.66;10443976;28;20288;-30
2022/11/26 00:55:49;;;;;;;4.90;2.47;;;;;;;17.72;60.90;97650.63;10439812;28;20392;-30
2022/11/26 01:00:51;;;;;;;3.15;1.90;;;;;;;17.70;61.18;97647.22;10441580;28;20080;-30
2022/11/26 01:05:55;;;;;;;4.95;2.58;;;;;;;17.69;60.86;97646.38;10440880;28;20466;-30
2022/11/26 01:10:57;;;;;;;6.22;2.15;;;;;;;17.72;61.60;97661.63;10442998;28;20406;-30
2022/11/26 01:16:01;;;;;;;5.88;2.00;;;;;;;17.76;61.19;97663.38;10439009;28;20040;-32
2022/11/26 01:21:01;;;;;;;5.28;2.33;;;;;;;17.74;61.35;97679.38;10440466;28;20033;-30
2022/11/26 01:26:01;;;;;;;5.23;2.00;;;;;;;17.74;61.51;97690.34;10438510;28;20033;-29
2022/11/26 01:31:02;;;;;;;5.25;2.78;;;;;;;17.73;61.68;97692.88;10439084;28;20287;-30
2022/11/26 01:36:02;;;;;;;5.83;2.10;;;;;;;17.71;61.37;97707.16;10439642;28;20479;-30
2022/11/26 01:41:15;;;;;;;4.07;1.70;;;;;;;17.70;61.37;97718.13;10435760;28;20418;-29
2022/11/26 01:46:19;;;;;;;3.88;2.03;;;;;;;17.70;61.50;97733.31;10441433;28;20037;-31
2022/11/26 01:51:26;;;;;;;4.47;2.47;;;;;;;17.66;61.66;97737.47;10440256;28;20376;-30
2022/11/26 01:56:44;;;;;;;4.47;1.98;;;;;;;17.67;61.66;97743.41;10437370;28;20029;-31
2022/11/26 02:01:46;;;;;;;3.80;1.77;;;;;;;17.64;61.54;97735.72;10432882;28;20037;-30
2022/11/26 02:06:49;;;;;;;3.25;1.92;;;;;;;17.64;61.67;97736.59;10430651;28;20066;-31
2022/11/26 02:11:49;;;;;;;3.40;2.40;;;;;;;17.65;61.69;97737.47;10441001;28;20112;-30
2022/11/26 02:17:02;;;;;;;2.92;1.48;;;;;;;17.56;61.56;97732.22;10435982;28;20096;-30
2022/11/26 02:22:25;;;;;;;3.10;1.92;;;;;;;17.65;61.67;97756.03;10436406;28;20048;-29
2022/11/26 02:27:45;;;;;;;4.10;1.98;;;;;;;17.71;61.99;97762.88;10434415;28;20156;-30
2022/11/26 02:32:56;;;;;;;4.13;1.77;;;;;;;17.68;62.50;97745.09;10421783;28;20466;-30
2022/11/26 02:38:04;;;;;;;2.83;2.08;;;;;;;17.73;61.82;97776.47;10431653;28;20106;-31
2022/11/26 02:43:04;;;;;;;4.15;1.75;;;;;;;17.69;61.88;97772.13;10438858;28;20039;-30
2022/11/26 02:48:12;;;;;;;2.17;1.58;;;;;;;17.64;61.84;97756.00;10433565;28;20043;-32
2022/11/26 02:53:16;;;;;;;2.80;1.65;;;;;;;17.63;61.90;97762.75;10431743;28;20039;-30
2022/11/26 02:58:18;;;;;;;6.13;3.17;;;;;;;17.59;61.76;97760.13;10434964;28;20125;-30
2022/11/26 03:03:24;;;;;;;4.40;1.77;;;;;;;17.63;61.75;97788.06;10431853;28;20029;-30
2022/11/26 03:08:26;;;;;;;;;;;;;;;17.63;61.92;97797.34;10435520;28;20033;-30
2022/11/26 03:13:26;;;;;;;3.17;1.80;;;;;;;17.62;61.78;97790.56;10434359;28;19928;-31
2022/11/26 03:18:27;;;;;;;5.07;1.65;;;;;;;17.62;62.09;97793.09;10432720;28;20025;-30
2022/11/26 03:23:27;;;;;;;2.53;1.67;;;;;;;17.62;62.04;97785.50;10431805;28;20055;-30
2022/11/26 03:28:28;;;;;;;5.65;2.00;;;;;;;17.58;61.89;97778.69;10397400;28;1073698;-30
2022/11/26 03:33:28;;;;;;;4.22;1.35;;;;;;;17.61;61.93;97776.19;10433296;28;20083;-30
2022/11/26 03:38:28;;;;;;;3.87;1.53;;;;;;;17.67;61.97;97773.78;10433028;28;20021;-30
2022/11/26 03:43:29;;;;;;;3.93;1.67;;;;;;;17.63;61.75;97777.94;10438836;28;20306;-30
2022/11/26 03:48:29;;;;;;;3.85;1.33;;;;;;;17.75;62.03;97779.88;10427900;28;20350;-31
2022/11/26 03:53:30;;;;;;;3.40;1.73;;;;;;;17.70;61.56;97783.97;10431633;28;20044;-29
2022/11/26 03:58:30;;;;;;;3.03;1.70;;;;;;;17.67;61.88;97776.34;10436326;28;20315;-30
2022/11/26 04:03:30;;;;;;;3.20;1.37;;;;;;;17.63;61.97;97772.00;10431226;28;20025;-31
2022/11/26 04:08:31;;;;;;;4.33;1.50;;;;;;;17.61;62.01;97768.59;10437332;28;20035;-30
2022/11/26 04:13:31;;;;;;;3.33;1.77;;;;;;;17.56;62.17;97765.16;10436363;28;20483;-30
2022/11/26 04:18:32;;;;;;;2.43;1.60;;;;;;;17.60;62.05;97766.91;10429133;28;20025;-31
2022/11/26 04:23:33;;;;;;;2.70;1.73;;;;;;;17.56;62.15;97771.03;10430512;28;20036;-30
2022/11/26 04:28:34;;;;;;;3.65;1.58;;;;;;;17.60;61.87;97777.03;10437761;28;20032;-31
2022/11/26 04:33:34;;;;;;;2.53;1.40;;;;;;;17.59;61.53;97796.41;10440450;28;20036;-30
2022/11/26 04:38:36;;;;;;;3.20;1.60;;;;;;;17.58;62.07;97788.81;10435682;28;20357;-30
2022/11/26 04:43:36;;;;;;;2.33;1.10;;;;;;;17.56;62.19;97782.88;10446472;28;20056;-29
2022/11/26 04:48:36;;;;;;;3.97;1.60;;;;;;;17.57;61.84;97787.94;10437523;28;20063;-32
2022/11/26 04:53:37;;;;;;;7.80;1.90;;;;;;;17.55;62.10;97781.13;10436561;28;20510;-30
2022/11/26 04:58:37;;;;;;;2.70;1.53;;;;;;;17.70;62.29;97805.09;10428057;28;20064;-31
2022/11/26 05:03:38;;;;;;;2.97;1.67;;;;;;;17.71;61.93;97811.00;10406787;28;20033;-28
2022/11/26 05:08:38;;;;;;;1.67;1.20;;;;;;;17.64;62.08;97814.22;10395649;28;20056;-28
2022/11/26 05:13:38;;;;;;;2.83;1.57;;;;;;;17.61;61.75;97819.25;10398158;28;20079;-29
2022/11/26 05:18:39;;;;;;;3.53;1.40;;;;;;;17.60;61.92;97815.00;10395729;28;20288;-29
2022/11/26 05:23:39;;;;;;;2.67;1.30;;;;;;;17.57;61.85;97823.38;10402720;28;20688;-30
2022/11/26 05:28:39;;;;;;;2.73;1.83;;;;;;;17.54;61.89;97818.28;10401345;28;20338;-29
2022/11/26 05:33:40;;;;;;;4.03;1.50;;;;;;;17.55;61.68;97835.16;10433706;28;20032;-29
2022/11/26 05:38:40;;;;;;;1.85;1.15;;;;;;;17.57;61.81;97842.81;10429663;28;20487;-29
2022/11/26 05:43:41;;;;;;;2.88;1.35;;;;;;;17.54;61.62;97842.72;10434772;28;20034;-29
2022/11/26 05:48:41;;;;;;;2.57;1.53;;;;;;;17.53;61.61;97841.88;10434027;28;20022;-29
2022/11/26 05:53:42;;;;;;;3.50;2.20;;;;;;;17.52;61.74;97835.13;10423052;28;20068;-29
2022/11/26 05:58:42;;;;;;;1.80;1.13;;;;;;;17.53;61.73;97851.16;10436180;28;21493;-30
2022/11/26 06:03:43;;;;;;;2.00;1.23;;;;;;;17.54;61.61;97858.78;10433760;28;20055;-29
2022/11/26 06:08:43;;;;;;;1.30;1.08;;;;;;;17.62;61.84;97861.47;10422831;28;20061;-30
2022/11/26 06:13:43;;;;;;;2.27;1.30;;;;;;;17.70;61.57;97875.16;10435857;28;20033;-30
2022/11/26 06:18:44;;;;;;;2.33;1.50;;;;;;;17.65;61.37;97891.94;10437478;28;20291;-30
2022/11/26 06:23:44;;;;;;;1.83;1.10;;;;;;;17.61;61.31;97891.03;10436282;28;20031;-29
2022/11/26 06:28:45;;;;;;;1.60;1.13;;;;;;;17.63;61.31;97885.97;10436092;28;20933;-30
2022/11/26 06:33:45;;;;;;;2.30;1.17;;;;;;;17.64;61.22;97901.22;10435067;28;20449;-29
2022/11/26 06:38:45;;;;;;;3.07;1.40;;;;;;;17.67;61.17;97900.44;10433401;28;20491;-30
2022/11/26 06:43:46;;;;;;;2.80;1.27;;;;;;;17.66;61.29;97903.78;10436360;28;20451;-29
2022/11/26 06:48:46;;;;;;;1.83;1.03;;;;;;;17.64;61.40;97906.28;10438035;28;20409;-31
2022/11/26 06:53:48;;;;;;;1.87;1.30;;;;;;;17.67;61.35;97915.63;10435485;28;20071;-30
2022/11/26 06:58:50;;;;;;;4.00;2.08;;;;;;;17.65;61.37;97912.22;10435305;28;20395;-29
2022/11/26 07:03:51;;;;;;;1.88;1.10;;;;;;;17.62;61.25;97909.59;10437756;28;20115;-30
2022/11/26 07:08:53;;;;;;;1.45;0.90;;;;;;;17.68;60.49;97917.31;10440780;28;20040;-29
2022/11/26 07:13:54;;;;;;;8.75;1.38;;;;;;;17.61;61.24;97934.06;10436635;28;20068;-31
2022/11/26 07:18:57;;;;;;;5.17;1.20;;;;;;;17.69;60.22;97929.16;10433108;28;20035;-29
2022/11/26 07:23:58;;;;;;;4.10;1.23;;;;;;;17.79;59.05;97931.06;10431659;28;20061;-30
2022/11/26 07:28:58;;;;;;;3.00;1.20;;;;;;;17.83;60.19;97927.81;10435977;28;20463;-29
2022/11/26 07:33:58;;;;;;;5.80;1.73;;;;;;;17.83;59.65;97927.81;10436512;28;20041;-30
2022/11/26 07:39:00;;;;;;;4.27;2.07;;;;;;;17.79;57.67;97931.94;10429366;28;20665;-30
2022/11/26 07:44:01;;;;;;;3.25;1.63;;;;;;;17.71;58.25;97947.78;10436882;28;20071;-30
2022/11/26 07:49:01;;;;;;;2.20;1.63;;;;;;;17.67;58.27;97949.38;10434111;28;20040;-30
2022/11/26 07:54:04;;;;;;;4.67;1.83;;;;;;;17.71;58.44;97955.38;10431710;28;20033;-29
2022/11/26 07:59:05;;;;;;;2.50;1.48;;;;;;;17.70;58.24;97953.66;10436623;28;20025;-30
2022/11/26 08:04:05;;;;;;;3.53;1.52;;;;;;;17.66;58.49;97955.28;10428500;28;20033;-29
2022/11/26 08:09:06;;;;;;;3.83;1.42;;;;;;;17.69;58.28;97960.44;10437472;28;20500;-30
2022/11/26 08:14:10;;;;;;;4.15;1.77;;;;;;;17.55;56.97;97950.78;10425886;28;20698;-30
2022/11/26 08:19:12;;;;;;;6.10;1.60;;;;;;;17.38;54.06;97954.59;10435430;28;20021;-30
2022/11/26 08:24:14;;;;;;;5.88;2.03;;;;;;;17.46;56.66;97969.16;10434071;28;20025;-30
2022/11/26 08:29:15;;;;;;;3.38;1.88;;;;;;;17.47;56.92;97957.34;10442132;28;20037;-30
2022/11/26 08:34:16;;;;;;;4.78;2.05;;;;;;;17.52;57.15;97950.72;10428326;28;20414;-30
2022/11/26 08:39:17;;;;;;;4.15;2.63;;;;;;;17.58;57.48;97955.94;10418906;28;20064;-30
2022/11/26 08:44:18;;;;;;;5.30;2.13;;;;;;;17.54;57.66;97955.00;10426790;28;20111;-29
2022/11/26 08:49:18;;;;;;;5.47;2.42;;;;;;;17.56;57.45;97955.06;10443832;28;20044;-29
2022/11/26 08:54:19;;;;;;;5.00;2.50;;;;;;;17.49;57.59;97963.31;10432650;28;20033;-31
2022/11/26 08:59:21;;;;;;;11.17;3.03;;;;;;;17.60;58.42;97970.34;10429732;28;20159;-30
2022/11/26 09:04:22;;;;;;;10.65;2.72;;;;;;;17.60;57.50;97969.47;10440406;28;20048;-30
2022/11/26 09:09:22;;;;;;;7.30;3.40;;;;;;;17.55;58.27;97973.56;10435283;28;20047;-30
2022/11/26 09:14:26;;;;;;;7.00;2.40;;;;;;;17.48;58.45;97964.16;10431733;28;20284;-29
2022/11/26 09:19:27;;;;;;;8.95;2.90;;;;;;;17.53;58.72;97987.88;10425891;28;20042;-30
2022/11/26 09:24:27;;;;;;;10.63;3.58;;;;;;;17.51;59.43;97987.84;10433504;28;20044;-31
2022/11/26 09:29:28;;;;;;;4.13;1.67;;;;;;;17.24;55.74;97979.53;10429504;28;20480;-30
2022/11/26 09:34:28;;;;;;;7.03;2.22;;;;;;;17.37;55.36;97985.78;10435417;28;20132;-30
2022/11/26 09:39:29;;;;;;;4.65;1.95;;;;;;;17.43;54.96;97991.03;10439373;28;20049;-30
2022/11/26 09:44:32;;;;;;;6.68;2.03;;;;;;;17.42;55.35;97990.16;10438926;28;20039;-30
2022/11/26 09:49:39;;;;;;;2.83;1.50;;;;;;;17.50;54.48;97972.63;10442906;28;20059;-29
2022/11/26 09:54:40;;;;;;;5.10;2.10;;;;;;;17.49;54.85;97976.81;10442483;28;20071;-30
2022/11/26 09:59:41;;;;;;;2.80;1.50;;;;;;;17.57;54.54;97979.56;10440170;28;20131;-30
2022/11/26 10:04:42;;;;;;;5.30;1.90;;;;;;;17.56;54.39;97971.09;10441160;28;20033;-31
2022/11/26 10:10:15;;;;;;;5.32;1.48;;;;;;;17.59;54.55;97967.78;10440827;28;20037;-30
2022/11/26 10:15:24;;;;;;;3.80;1.90;;;;;;;17.58;55.10;97955.94;10432362;28;20116;-30
2022/11/26 10:20:52;;;;;;;3.00;1.25;;;;;;;17.55;54.41;97956.72;10434009;28;20068;-30
2022/11/26 10:26:03;;;;;;;2.65;1.92;;;;;;;17.57;54.19;97959.28;10435543;28;20124;-30
2022/11/26 10:31:13;;;;;;;3.10;1.77;;;;;;;17.58;54.38;97961.00;10431759;28;20032;-30
2022/11/26 10:36:22;;;;;;;3.58;1.70;;;;;;;17.59;54.60;97962.72;10438735;28;20021;-30
2022/11/26 10:41:25;;;;;;;2.28;1.60;;;;;;;17.59;54.16;97963.53;10433852;28;20029;-30
2022/11/26 10:46:32;;;;;;;4.20;1.70;;;;;;;17.58;55.48;97961.84;10432121;28;20029;-30
2022/11/26 10:51:36;;;;;;;3.03;1.67;;;;;;;17.60;55.21;97957.69;10434421;28;20035;-30
2022/11/26 10:56:44;;;;;;;5.60;2.75;;;;;;;17.65;55.58;97948.50;10438893;28;20036;-30
2022/11/26 11:01:45;;;;;;;8.50;3.88;;;;;;;17.70;56.29;97941.00;10432499;28;20060;-30
2022/11/26 11:06:47;;;;;;;5.40;3.08;;;;;;;17.69;56.15;97926.63;10429108;28;20029;-30
2022/11/26 11:12:12;;;;;;;7.30;3.10;;;;;;;17.59;57.85;97932.31;10436080;28;20035;-29
2022/11/26 11:17:35;;;;;;;5.28;2.50;;;;;;;17.65;57.45;97917.28;10427913;28;20041;-30
2022/11/26 11:22:36;;;;;;;4.65;2.70;;;;;;;17.60;57.42;97922.25;10427060;28;20052;-30
2022/11/26 11:27:40;;;;;;;5.93;2.25;;;;;;;17.59;57.07;97924.72;10434047;28;20518;-31
2022/11/26 11:32:40;;;;;;;6.35;2.20;;;;;;;17.42;56.81;97888.88;10426372;28;20052;-30
2022/11/26 11:37:53;;;;;;;4.87;1.53;;;;;;;17.61;57.05;97915.47;10440066;28;20404;-30
2022/11/26 11:43:00;;;;;;;7.20;2.53;;;;;;;17.59;56.98;97917.13;10444641;28;20106;-30
2022/11/26 11:48:59;;;;;;;4.78;2.13;;;;;;;17.57;57.34;97927.22;10440063;28;20033;-30
2022/11/26 11:54:15;;;;;;;4.03;1.70;;;;;;;17.57;57.81;97904.41;10439314;28;20053;-30
2022/11/26 11:59:57;;;;;;;5.27;2.10;;;;;;;17.61;57.69;97895.22;10431909;28;20499;-30
2022/11/26 12:05:30;;;;;;;6.10;2.42;;;;;;;17.53;58.34;97884.94;10435894;28;20048;-30
2022/11/26 12:10:49;;;;;;;4.82;2.00;;;;;;;17.54;58.22;97878.19;10440404;28;20043;-30
2022/11/26 12:15:57;;;;;;;4.25;2.10;;;;;;;17.54;58.16;97879.03;10437938;28;20033;-30
2022/11/26 12:21:07;;;;;;;11.88;2.95;;;;;;;17.55;58.38;97885.81;10437749;28;20041;-30
2022/11/26 12:26:15;;;;;;;7.60;2.28;;;;;;;17.59;58.45;97891.81;10430296;28;20037;-30
2022/11/26 12:31:21;;;;;;;7.90;2.72;;;;;;;17.58;58.63;97896.00;10435593;28;20043;-30
2022/11/26 12:36:41;;;;;;;4.37;2.20;;;;;;;17.57;58.78;97886.69;10441354;28;20122;-30
2022/11/26 12:41:56;;;;;;;4.72;1.98;;;;;;;17.59;58.57;97894.34;10442119;28;20033;-30
2022/11/26 12:47:16;;;;;;;5.55;2.03;;;;;;;17.58;58.91;97892.63;10430917;28;20141;-32
2022/11/26 12:52:30;;;;;;;3.90;1.85;;;;;;;17.58;58.66;97890.09;10433262;28;20036;-30
2022/11/26 12:57:41;;;;;;;3.45;2.20;;;;;;;17.56;58.52;97882.47;10441439;28;20016;-30
2022/11/26 13:02:47;;;;;;;5.68;2.00;;;;;;;17.57;58.78;97885.84;10428043;28;20043;-30
2022/11/26 13:08:06;;;;;;;5.47;1.83;;;;;;;17.61;58.45;97880.03;10441099;28;20041;-30
2022/11/26 13:13:28;;;;;;;3.22;1.70;;;;;;;17.58;58.96;97882.50;10442483;28;20114;-30
2022/11/26 13:18:53;;;;;;;4.20;1.85;;;;;;;17.61;58.81;97872.44;10435240;28;20021;-30
2022/11/26 13:24:13;;;;;;;4.55;1.95;;;;;;;17.59;58.62;97876.59;10437507;28;20033;-29
2022/11/26 13:29:18;;;;;;;6.32;2.10;;;;;;;17.57;58.92;97883.31;10444856;28;20036;-30
2022/11/26 13:34:27;;;;;;;4.30;1.67;;;;;;;17.49;58.81;97869.66;10445217;28;20037;-30
2022/11/26 13:39:34;;;;;;;5.35;1.88;;;;;;;17.57;58.75;97875.72;10440680;28;20040;-32
2022/11/26 13:44:52;;;;;;;6.40;2.42;;;;;;;17.49;58.13;97882.31;10438086;28;20025;-30
2022/11/26 13:50:13;;;;;;;3.45;1.63;;;;;;;17.51;58.18;97883.19;10430349;28;20048;-30
2022/11/26 13:55:21;;;;;;;10.00;1.95;;;;;;;17.45;58.89;97873.78;10427382;28;20037;-30
2022/11/26 14:00:33;;;;;;;9.27;3.08;;;;;;;17.42;56.94;97882.97;10427252;28;20056;-30
2022/11/26 14:05:49;;;;;;;6.97;3.08;;;;;;;17.29;57.41;97861.56;10437115;28;20120;-30
2022/11/26 14:10:49;;;;;;;13.07;3.75;;;;;;;17.47;57.77;97866.19;10433968;28;20424;-31
2022/11/26 14:15:54;;;;;;;7.63;3.03;;;;;;;17.52;58.03;97880.69;10436269;28;20036;-29
2022/11/26 14:21:00;;;;;;;6.28;2.80;;;;;;;17.57;57.91;97879.09;10435502;28;20033;-30
2022/11/26 14:26:00;;;;;;;6.33;2.80;;;;;;;17.60;57.82;97878.31;10436068;28;20123;-30
2022/11/26 14:31:24;;;;;;;5.73;2.77;;;;;;;17.61;57.91;97869.91;10437062;28;20366;-30
2022/11/26 14:36:26;;;;;;;4.72;2.60;;;;;;;17.61;57.80;97869.91;10446378;28;20670;-30
2022/11/26 14:41:40;;;;;;;5.75;2.38;;;;;;;17.62;57.91;97874.13;10438724;28;20036;-30
2022/11/26 14:46:44;;;;;;;2.45;1.75;;;;;;;17.60;58.11;97880.84;10433217;28;20060;-31
2022/11/26 14:51:47;;;;;;;3.97;2.22;;;;;;;17.58;58.19;97885.03;10423235;28;20071;-30
2022/11/26 14:56:48;;;;;;;6.40;2.85;;;;;;;17.59;58.18;97891.81;10436525;28;20029;-30
2022/11/26 15:01:48;;;;;;;4.35;3.03;;;;;;;17.62;58.19;97896.94;10430380;28;20562;-30
2022/11/26 15:06:48;;;;;;;3.60;2.33;;;;;;;17.59;57.93;97876.59;10438637;28;20026;-30
2022/11/26 15:12:05;;;;;;;3.80;2.03;;;;;;;17.63;57.98;97896.09;10434232;28;20037;-30
2022/11/26 15:17:10;;;;;;;3.42;1.88;;;;;;;17.57;58.07;97888.38;10431612;28;20788;-30
2022/11/26 15:22:43;;;;;;;2.10;1.70;;;;;;;17.69;57.95;97898.78;10432107;28;20083;-30
2022/11/26 15:28:03;;;;;;;8.52;2.33;;;;;;;17.67;58.27;97885.22;10418572;28;20038;-30
2022/11/26 15:33:06;;;;;;;3.25;2.58;;;;;;;17.64;58.01;97880.06;10433519;28;20506;-30
2022/11/26 15:38:13;;;;;;;4.60;2.65;;;;;;;17.64;57.99;97880.06;10430312;28;20043;-30
2022/11/26 15:43:45;;;;;;;2.53;2.00;;;;;;;17.65;58.16;97876.75;10437982;28;20395;-27
2022/11/26 15:49:02;;;;;;;2.42;1.80;;;;;;;17.62;58.27;97876.66;10426349;28;20113;-30
2022/11/26 15:54:14;;;;;;;2.97;2.08;;;;;;;17.60;58.15;97871.59;10430037;28;20544;-31
2022/11/26 15:59:16;;;;;;;4.47;2.00;;;;;;;17.65;57.97;97861.56;10434861;28;20508;-30
2022/11/26 16:04:31;;;;;;;3.97;1.88;;;;;;;17.63;58.01;97864.03;10441889;28;20029;-30
2022/11/26 16:09:32;;;;;;;3.22;1.50;;;;;;;17.62;58.21;97866.53;10435370;28;20094;-30
2022/11/26 16:14:37;;;;;;;3.45;1.90;;;;;;;17.62;58.57;97862.34;10431986;28;20346;-30
2022/11/26 16:19:49;;;;;;;3.25;1.45;;;;;;;17.61;58.42;97860.63;10430065;28;20040;-31
2022/11/26 16:25:17;;;;;;;2.35;1.45;;;;;;;17.63;58.15;97853.03;10432179;28;20038;-30
2022/11/26 16:30:18;;;;;;;3.22;1.38;;;;;;;17.71;58.22;97857.47;10439036;28;20063;-31
2022/11/26 16:35:18;;;;;;;2.63;1.70;;;;;;;17.74;58.19;97856.69;10441656;28;20086;-31
2022/11/26 16:40:19;;;;;;;2.25;1.63;;;;;;;17.66;58.17;97855.66;10436071;28;20033;-30
2022/11/26 16:45:20;;;;;;;4.60;1.95;;;;;;;17.66;57.75;97843.00;10443673;28;20034;-30
2022/11/26 16:50:23;;;;;;;2.53;1.70;;;;;;;17.63;58.57;97853.03;10439732;28;20041;-30
2022/11/26 16:55:25;;;;;;;2.42;2.03;;;;;;;17.59;58.08;97844.53;10440779;28;20499;-30
2022/11/26 17:00:26;;;;;;;2.35;1.70;;;;;;;17.54;58.34;97842.72;10440826;28;20033;-30
2022/11/26 17:05:27;;;;;;;2.38;1.70;;;;;;;17.65;58.31;97864.09;10433689;28;20123;-30
2022/11/26 17:10:28;;;;;;;3.53;1.63;;;;;;;17.65;58.64;97866.63;10442100;28;20475;-31
2022/11/26 17:15:28;;;;;;;2.63;1.70;;;;;;;17.64;58.51;97867.41;10437417;28;20036;-30
2022/11/26 17:20:29;;;;;;;3.53;1.80;;;;;;;17.67;58.53;97854.84;10434125;28;20040;-30
2022/11/26 17:25:29;;;;;;;2.83;1.52;;;;;;;17.70;58.31;97860.81;10435611;28;20082;-30
2022/11/26 17:30:30;;;;;;;3.10;1.93;;;;;;;17.69;58.22;97869.25;10444244;28;20029;-30
2022/11/26 17:35:30;;;;;;;3.40;1.60;;;;;;;17.72;58.71;97856.63;10431562;28;20400;-30
2022/11/26 17:40:31;;;;;;;3.47;1.80;;;;;;;17.65;59.40;97857.31;10421303;28;20283;-30
2022/11/26 17:45:31;;;;;;;3.10;1.55;;;;;;;17.67;59.22;97860.75;10433204;28;20060;-30
2022/11/26 17:50:32;;;;;;;6.67;1.60;;;;;;;17.73;58.98;97865.09;10435651;28;20025;-30
2022/11/26 17:55:33;;;;;;;3.80;1.60;;;;;;;17.70;59.12;97860.81;10431435;28;20099;-30
2022/11/26 18:00:33;;;;;;;4.00;2.22;;;;;;;17.67;59.48;97868.34;10430207;28;20577;-30
2022/11/26 18:05:33;;;;;;;7.80;2.10;;;;;;;17.73;58.75;97870.19;10441886;28;20175;-31
2022/11/26 18:10:34;;;;;;;3.40;1.87;;;;;;;17.64;59.41;97865.75;10437601;28;20291;-30
2022/11/26 18:15:34;;;;;;;3.53;1.77;;;;;;;17.68;59.24;97874.28;10413840;28;20282;-31
2022/11/26 18:20:35;;;;;;;12.37;1.80;;;;;;;17.67;59.28;97868.34;10428278;28;20295;-29
2022/11/26 18:25:35;;;;;;;4.25;1.73;;;;;;;17.72;59.80;97868.44;10416498;28;20314;-29
2022/11/26 18:30:36;;;;;;;3.33;2.10;;;;;;;17.73;59.38;97865.09;10430663;28;20502;-31
2022/11/26 18:35:36;;;;;;;5.55;1.90;;;;;;;17.76;58.95;97868.53;10424647;28;20407;-30
2022/11/26 18:40:36;;;;;;;9.53;2.07;;;;;;;17.62;59.96;97862.34;10426682;28;20179;-30
2022/11/26 18:45:40;;;;;;;10.00;2.38;;;;;;;17.68;60.44;97866.69;10414608;28;20029;-29
2022/11/26 18:50:41;;;;;;;8.65;2.08;;;;;;;17.67;60.70;97854.84;10412574;28;20495;-31
2022/11/26 18:55:41;;;;;;;3.00;1.67;;;;;;;17.72;59.11;97858.31;10423374;28;20036;-30
2022/11/26 19:00:43;;;;;;;5.10;2.00;;;;;;;17.61;60.41;97850.50;10416606;28;20374;-31
2022/11/26 19:05:44;;;;;;;8.90;2.22;;;;;;;17.72;59.65;97854.09;10419303;28;20037;-30
2022/11/26 19:10:45;;;;;;;5.93;1.60;;;;;;;17.72;59.77;97858.31;10433931;28;20117;-30
2022/11/26 19:15:45;;;;;;;8.70;2.20;;;;;;;17.67;60.21;97840.47;10418986;28;20029;-30
2022/11/26 19:20:51;;;;;;;4.00;1.70;;;;;;;17.60;60.28;97828.53;10426429;28;20120;-31
2022/11/26 19:25:52;;;;;;;3.87;1.70;;;;;;;17.67;60.21;97834.56;10430473;28;20065;-30
2022/11/26 19:31:04;;;;;;;7.27;2.00;;;;;;;17.62;60.30;97836.16;10429687;28;20112;-30
2022/11/26 19:36:07;;;;;;;4.53;1.80;;;;;;;17.64;60.44;97834.50;10413221;28;20676;-30
2022/11/26 19:41:08;;;;;;;6.43;2.13;;;;;;;17.61;60.55;97821.78;10421965;28;20036;-30
2022/11/26 19:46:12;;;;;;;6.80;2.10;;;;;;;17.58;60.66;97814.13;10422299;28;20036;-30
2022/11/26 19:51:13;;;;;;;5.40;2.03;;;;;;;17.59;60.60;97816.69;10417769;28;20067;-29
2022/11/26 19:56:15;;;;;;;6.88;2.33;;;;;;;17.65;59.99;97816.81;10427449;28;20394;-30
2022/11/26 20:01:16;;;;;;;4.10;1.92;;;;;;;17.68;60.33;97821.09;10438691;28;20407;-28
2022/11/26 20:06:22;;;;;;;3.70;2.03;;;;;;;17.66;60.20;97825.28;10444161;28;20041;-29
2022/11/26 20:11:23;;;;;;;5.90;2.00;;;;;;;17.58;60.17;97839.44;10443077;28;20083;-29
2022/11/26 20:16:27;;;;;;;3.72;1.77;;;;;;;17.58;59.85;97835.22;10441521;28;20028;-30
2022/11/26 20:21:31;;;;;;;6.38;2.30;;;;;;;17.51;60.33;97825.78;10433646;28;20033;-30
2022/11/26 20:26:37;;;;;;;4.63;1.63;;;;;;;17.54;60.34;97838.53;10436173;28;20407;-29
2022/11/26 20:31:41;;;;;;;4.75;1.88;;;;;;;17.58;59.96;97834.38;10440953;28;20545;-30
2022/11/26 20:36:42;;;;;;;4.38;1.60;;;;;;;17.50;59.96;97821.53;10428694;28;20048;-30
2022/11/26 20:41:43;;;;;;;4.53;2.25;;;;;;;17.53;59.08;97816.56;10435894;28;20078;-33
2022/11/26 20:46:44;;;;;;;6.80;1.90;;;;;;;17.47;58.05;97815.56;10430562;28;20028;-30
2022/11/26 20:51:44;;;;;;;3.30;1.85;;;;;;;17.55;58.25;97801.38;10439083;28;20033;-29
2022/11/26 20:56:44;;;;;;;8.23;2.73;;;;;;;17.51;60.07;97782.75;10422336;28;20029;-31
2022/11/26 21:01:45;;;;;;;4.72;1.55;;;;;;;17.58;59.48;97778.69;10435257;28;20590;-30
2022/11/26 21:06:45;;;;;;;6.83;1.57;;;;;;;17.71;58.77;97776.41;10428959;28;20037;-30
2022/11/26 21:11:46;;;;;;;5.90;1.67;;;;;;;17.74;59.18;97765.50;10410159;28;20519;-29
2022/11/26 21:16:47;;;;;;;3.72;1.65;;;;;;;17.74;58.79;97761.28;10422778;28;20040;-29
2022/11/26 21:21:48;;;;;;;5.82;1.48;;;;;;;17.73;58.94;97774.75;10413115;28;20040;-30
2022/11/26 21:26:48;;;;;;;5.27;1.50;;;;;;;17.70;59.65;97778.91;10421444;28;20049;-30
2022/11/26 21:31:48;;;;;;;3.27;1.90;;;;;;;17.67;59.82;97781.41;10419803;28;20068;-33
2022/11/26 21:36:49;;;;;;;3.33;1.50;;;;;;;17.69;59.37;97797.47;10426395;28;20034;-31
2022/11/26 21:41:51;;;;;;;3.20;1.80;;;;;;;17.62;60.12;97799.03;10433738;28;20749;-30
2022/11/26 21:46:51;;;;;;;3.40;2.33;;;;;;;17.64;59.82;97799.03;10430546;28;20444;-29
2022/11/26 21:51:52;;;;;;;3.78;1.40;;;;;;;17.61;60.16;97799.00;10435814;28;20393;-30
2022/11/26 21:56:53;;;;;;;3.20;1.98;;;;;;;17.63;60.00;97789.72;10420101;28;20049;-31
2022/11/26 22:01:53;;;;;;;5.07;1.77;;;;;;;17.66;59.94;97797.41;10419824;28;20064;-30
2022/11/26 22:06:54;;;;;;;2.42;1.30;;;;;;;17.63;60.01;97803.28;10435821;28;20663;-30
2022/11/26 22:11:54;;;;;;;1.80;1.40;;;;;;;17.61;60.00;97804.91;10434049;28;20026;-30
2022/11/26 22:16:55;;;;;;;5.35;1.83;;;;;;;17.73;59.97;97814.44;10431270;28;20315;-29
2022/11/26 22:21:55;;;;;;;2.53;1.40;;;;;;;17.75;59.58;97822.94;10423775;28;20307;-30
2022/11/26 22:26:55;;;;;;;2.13;1.27;;;;;;;17.54;58.72;97812.34;10426832;28;20036;-30
2022/11/26 22:31:56;;;;;;;4.20;1.45;;;;;;;17.65;59.52;97816.81;10423282;28;20098;-30
2022/11/26 22:36:56;;;;;;;2.80;1.10;;;;;;;17.56;59.65;97820.84;10427838;28;20040;-31
2022/11/26 22:41:57;;;;;;;3.20;1.30;;;;;;;17.58;59.73;97831.84;10431668;28;20040;-29
2022/11/26 22:46:57;;;;;;;2.10;1.20;;;;;;;17.53;59.18;97830.88;10412415;28;20802;-31
2022/11/26 22:51:57;;;;;;;1.90;1.03;;;;;;;17.49;60.02;97829.97;10428613;28;20040;-30
2022/11/26 22:56:58;;;;;;;3.20;1.30;;;;;;;17.49;59.54;97829.97;10442326;28;20037;-30
2022/11/26 23:01:58;;;;;;;3.40;1.20;;;;;;;17.49;59.19;97819.00;10434986;28;20307;-30
2022/11/26 23:06:58;;;;;;;1.20;1.00;;;;;;;17.43;59.57;97796.94;10437515;28;20039;-30
2022/11/26 23:11:59;;;;;;;2.00;1.33;;;;;;;17.43;58.89;97791.00;10433311;28;20099;-30
2022/11/26 23:16:59;;;;;;;2.53;1.30;;;;;;;17.44;59.16;97790.19;10431606;28;20324;-30
2022/11/26 23:22:00;;;;;;;3.63;1.10;;;;;;;17.40;58.91;97775.78;10433763;28;20033;-29
2022/11/26 23:27:00;;;;;;;2.40;1.47;;;;;;;17.50;58.60;97772.59;10439244;28;20294;-30
2022/11/26 23:32:00;;;;;;;1.70;1.30;;;;;;;17.54;58.57;97766.75;10438606;28;20040;-31